sensor_id;sensor_type;location;lat;lon;timestamp;P1;durP1;ratioP1;P2;durP2;ratioP2
66189;SDS011;52992;52.084;5.412;2022-12-24T00:01:03;26.83;;;3.87;;
66189;SDS011;52992;52.084;5.412;2022-12-24T00:03:31;26.70;;;4.57;;
66189;SDS011;52992;52.084;5.412;2022-12-24T00:06:02;28.87;;;5.43;;
66189;SDS011;52992;52.084;5.412;2022-12-24T00:08:33;28.30;;;4.93;;
66189;SDS011;52992;52.084;5.412;2022-12-24T00:11:00;24.37;;;4.20;;
66189;SDS011;52992;52.084;5.412;2022-12-24T00:13:27;38.00;;;6.33;;
66189;SDS011;52992;52.084;5.412;2022-12-24T00:15:53;30.57;;;5.37;;
66189;SDS011;52992;52.084;5.412;2022-12-24T00:18:20;28.40;;;5.53;;
66189;SDS011;52992;52.084;5.412;2022-12-24T00:20:47;17.10;;;4.20;;
66189;SDS011;52992;52.084;5.412;2022-12-24T00:23:15;21.77;;;4.67;;
66189;SDS011;52992;52.084;5.412;2022-12-24T00:25:42;32.43;;;4.33;;
66189;SDS011;52992;52.084;5.412;2022-12-24T00:28:09;33.47;;;6.07;;
66189;SDS011;52992;52.084;5.412;2022-12-24T00:30:37;18.90;;;4.23;;
66189;SDS011;52992;52.084;5.412;2022-12-24T00:33:04;25.50;;;4.53;;
66189;SDS011;52992;52.084;5.412;2022-12-24T00:35:34;29.17;;;4.40;;
66189;SDS011;52992;52.084;5.412;2022-12-24T00:38:02;26.70;;;4.27;;
66189;SDS011;52992;52.084;5.412;2022-12-24T00:40:30;26.07;;;4.43;;
66189;SDS011;52992;52.084;5.412;2022-12-24T00:42:57;22.37;;;4.60;;
66189;SDS011;52992;52.084;5.412;2022-12-24T00:45:24;24.30;;;5.30;;
66189;SDS011;52992;52.084;5.412;2022-12-24T00:47:53;30.03;;;4.93;;
66189;SDS011;52992;52.084;5.412;2022-12-24T00:50:19;29.73;;;5.07;;
66189;SDS011;52992;52.084;5.412;2022-12-24T00:52:46;33.53;;;5.27;;
66189;SDS011;52992;52.084;5.412;2022-12-24T00:55:13;26.77;;;4.97;;
66189;SDS011;52992;52.084;5.412;2022-12-24T00:57:40;21.73;;;4.53;;
66189;SDS011;52992;52.084;5.412;2022-12-24T01:00:07;27.07;;;4.37;;
66189;SDS011;52992;52.084;5.412;2022-12-24T01:02:35;26.10;;;5.57;;
66189;SDS011;52992;52.084;5.412;2022-12-24T01:05:02;21.00;;;4.50;;
66189;SDS011;52992;52.084;5.412;2022-12-24T01:07:39;28.50;;;5.67;;
66189;SDS011;52992;52.084;5.412;2022-12-24T01:10:10;24.53;;;5.50;;
66189;SDS011;52992;52.084;5.412;2022-12-24T01:12:42;28.37;;;4.73;;
66189;SDS011;52992;52.084;5.412;2022-12-24T01:15:09;27.70;;;4.50;;
66189;SDS011;52992;52.084;5.412;2022-12-24T01:17:37;22.60;;;4.33;;
66189;SDS011;52992;52.084;5.412;2022-12-24T01:20:04;28.57;;;4.87;;
66189;SDS011;52992;52.084;5.412;2022-12-24T01:22:33;26.20;;;4.73;;
66189;SDS011;52992;52.084;5.412;2022-12-24T01:25:00;39.33;;;6.57;;
66189;SDS011;52992;52.084;5.412;2022-12-24T01:27:27;28.43;;;4.93;;
66189;SDS011;52992;52.084;5.412;2022-12-24T01:29:54;23.80;;;4.40;;
66189;SDS011;52992;52.084;5.412;2022-12-24T01:32:20;29.00;;;5.30;;
66189;SDS011;52992;52.084;5.412;2022-12-24T01:34:47;36.37;;;6.13;;
66189;SDS011;52992;52.084;5.412;2022-12-24T01:37:14;37.43;;;4.77;;
66189;SDS011;52992;52.084;5.412;2022-12-24T01:39:41;20.37;;;4.83;;
66189;SDS011;52992;52.084;5.412;2022-12-24T01:42:18;28.50;;;5.70;;
66189;SDS011;52992;52.084;5.412;2022-12-24T01:45:33;36.20;;;5.63;;
66189;SDS011;52992;52.084;5.412;2022-12-24T01:48:15;34.53;;;5.50;;
66189;SDS011;52992;52.084;5.412;2022-12-24T01:50:46;27.47;;;5.67;;
66189;SDS011;52992;52.084;5.412;2022-12-24T01:53:15;35.93;;;5.50;;
66189;SDS011;52992;52.084;5.412;2022-12-24T01:55:43;26.60;;;5.13;;
66189;SDS011;52992;52.084;5.412;2022-12-24T01:58:12;32.40;;;5.10;;
66189;SDS011;52992;52.084;5.412;2022-12-24T02:00:41;25.27;;;4.73;;
66189;SDS011;52992;52.084;5.412;2022-12-24T02:03:09;33.07;;;5.17;;
66189;SDS011;52992;52.084;5.412;2022-12-24T02:08:19;32.27;;;4.80;;
66189;SDS011;52992;52.084;5.412;2022-12-24T02:10:47;20.13;;;4.90;;
66189;SDS011;52992;52.084;5.412;2022-12-24T02:13:16;25.77;;;5.63;;
66189;SDS011;52992;52.084;5.412;2022-12-24T02:18:24;29.07;;;5.80;;
66189;SDS011;52992;52.084;5.412;2022-12-24T02:24:15;36.27;;;4.80;;
66189;SDS011;52992;52.084;5.412;2022-12-24T02:27:05;35.37;;;5.03;;
66189;SDS011;52992;52.084;5.412;2022-12-24T02:35:08;23.53;;;4.70;;
66189;SDS011;52992;52.084;5.412;2022-12-24T02:37:52;34.93;;;5.50;;
66189;SDS011;52992;52.084;5.412;2022-12-24T02:40:35;37.73;;;5.03;;
66189;SDS011;52992;52.084;5.412;2022-12-24T02:43:12;26.07;;;4.83;;
66189;SDS011;52992;52.084;5.412;2022-12-24T02:45:45;25.27;;;5.17;;
66189;SDS011;52992;52.084;5.412;2022-12-24T02:48:24;24.27;;;4.40;;
66189;SDS011;52992;52.084;5.412;2022-12-24T02:50:53;23.60;;;4.80;;
66189;SDS011;52992;52.084;5.412;2022-12-24T02:53:26;47.57;;;5.33;;
66189;SDS011;52992;52.084;5.412;2022-12-24T02:58:44;30.63;;;5.03;;
66189;SDS011;52992;52.084;5.412;2022-12-24T03:04:44;28.43;;;5.10;;
66189;SDS011;52992;52.084;5.412;2022-12-24T03:07:37;21.00;;;5.03;;
66189;SDS011;52992;52.084;5.412;2022-12-24T03:13:02;17.20;;;4.60;;
66189;SDS011;52992;52.084;5.412;2022-12-24T03:15:32;27.93;;;4.33;;
66189;SDS011;52992;52.084;5.412;2022-12-24T03:18:00;25.57;;;4.80;;
66189;SDS011;52992;52.084;5.412;2022-12-24T03:20:43;24.80;;;4.07;;
66189;SDS011;52992;52.084;5.412;2022-12-24T03:23:32;24.20;;;3.90;;
66189;SDS011;52992;52.084;5.412;2022-12-24T03:26:00;32.80;;;4.30;;
66189;SDS011;52992;52.084;5.412;2022-12-24T03:28:31;28.23;;;4.57;;
66189;SDS011;52992;52.084;5.412;2022-12-24T03:30:59;25.17;;;5.03;;
66189;SDS011;52992;52.084;5.412;2022-12-24T03:33:29;30.53;;;5.23;;
66189;SDS011;52992;52.084;5.412;2022-12-24T03:35:56;23.90;;;4.50;;
66189;SDS011;52992;52.084;5.412;2022-12-24T03:38:22;42.67;;;6.10;;
66189;SDS011;52992;52.084;5.412;2022-12-24T03:40:49;25.27;;;4.30;;
66189;SDS011;52992;52.084;5.412;2022-12-24T03:43:16;40.87;;;5.27;;
66189;SDS011;52992;52.084;5.412;2022-12-24T03:45:43;36.83;;;5.00;;
66189;SDS011;52992;52.084;5.412;2022-12-24T03:48:10;43.10;;;5.37;;
66189;SDS011;52992;52.084;5.412;2022-12-24T03:50:36;31.53;;;4.67;;
66189;SDS011;52992;52.084;5.412;2022-12-24T03:53:03;36.20;;;4.80;;
66189;SDS011;52992;52.084;5.412;2022-12-24T03:55:30;29.20;;;4.70;;
66189;SDS011;52992;52.084;5.412;2022-12-24T03:57:57;33.33;;;4.63;;
66189;SDS011;52992;52.084;5.412;2022-12-24T04:00:24;35.27;;;4.57;;
66189;SDS011;52992;52.084;5.412;2022-12-24T04:02:50;34.30;;;5.30;;
66189;SDS011;52992;52.084;5.412;2022-12-24T04:05:19;36.93;;;6.63;;
66189;SDS011;52992;52.084;5.412;2022-12-24T04:07:46;26.77;;;4.87;;
66189;SDS011;52992;52.084;5.412;2022-12-24T04:10:14;33.57;;;5.40;;
66189;SDS011;52992;52.084;5.412;2022-12-24T04:12:41;29.80;;;6.03;;
66189;SDS011;52992;52.084;5.412;2022-12-24T04:15:08;26.30;;;6.27;;
66189;SDS011;52992;52.084;5.412;2022-12-24T04:17:36;31.77;;;5.50;;
66189;SDS011;52992;52.084;5.412;2022-12-24T04:20:03;32.60;;;5.53;;
66189;SDS011;52992;52.084;5.412;2022-12-24T04:22:30;36.57;;;5.63;;
66189;SDS011;52992;52.084;5.412;2022-12-24T04:24:57;50.70;;;6.17;;
66189;SDS011;52992;52.084;5.412;2022-12-24T04:27:24;43.77;;;6.53;;
66189;SDS011;52992;52.084;5.412;2022-12-24T04:29:56;39.30;;;4.83;;
66189;SDS011;52992;52.084;5.412;2022-12-24T04:32:24;32.30;;;5.43;;
66189;SDS011;52992;52.084;5.412;2022-12-24T04:34:51;37.20;;;6.37;;
66189;SDS011;52992;52.084;5.412;2022-12-24T04:37:18;34.27;;;5.37;;
66189;SDS011;52992;52.084;5.412;2022-12-24T04:39:45;33.37;;;5.67;;
66189;SDS011;52992;52.084;5.412;2022-12-24T04:42:12;23.10;;;4.13;;
66189;SDS011;52992;52.084;5.412;2022-12-24T04:44:39;37.27;;;5.97;;
66189;SDS011;52992;52.084;5.412;2022-12-24T04:47:05;41.30;;;6.30;;
66189;SDS011;52992;52.084;5.412;2022-12-24T04:49:32;37.13;;;5.20;;
66189;SDS011;52992;52.084;5.412;2022-12-24T04:51:59;28.27;;;4.73;;
66189;SDS011;52992;52.084;5.412;2022-12-24T04:54:26;25.17;;;4.90;;
66189;SDS011;52992;52.084;5.412;2022-12-24T04:56:53;29.60;;;5.80;;
66189;SDS011;52992;52.084;5.412;2022-12-24T04:59:19;30.80;;;4.77;;
66189;SDS011;52992;52.084;5.412;2022-12-24T05:01:46;30.57;;;5.10;;
66189;SDS011;52992;52.084;5.412;2022-12-24T05:04:13;35.93;;;5.30;;
66189;SDS011;52992;52.084;5.412;2022-12-24T05:09:07;30.83;;;5.27;;
66189;SDS011;52992;52.084;5.412;2022-12-24T05:11:34;25.03;;;5.23;;
66189;SDS011;52992;52.084;5.412;2022-12-24T05:14:01;25.17;;;4.17;;
66189;SDS011;52992;52.084;5.412;2022-12-24T05:16:28;26.63;;;5.80;;
66189;SDS011;52992;52.084;5.412;2022-12-24T05:18:55;23.47;;;4.40;;
66189;SDS011;52992;52.084;5.412;2022-12-24T05:21:22;25.57;;;4.60;;
66189;SDS011;52992;52.084;5.412;2022-12-24T05:23:49;32.03;;;6.17;;
66189;SDS011;52992;52.084;5.412;2022-12-24T05:26:40;27.83;;;5.10;;
66189;SDS011;52992;52.084;5.412;2022-12-24T05:29:10;39.47;;;5.73;;
66189;SDS011;52992;52.084;5.412;2022-12-24T05:31:40;22.70;;;4.80;;
66189;SDS011;52992;52.084;5.412;2022-12-24T05:34:08;30.57;;;5.37;;
66189;SDS011;52992;52.084;5.412;2022-12-24T05:36:36;35.60;;;4.80;;
66189;SDS011;52992;52.084;5.412;2022-12-24T05:39:03;24.87;;;5.17;;
66189;SDS011;52992;52.084;5.412;2022-12-24T05:41:38;33.43;;;5.70;;
66189;SDS011;52992;52.084;5.412;2022-12-24T05:44:05;38.17;;;5.80;;
66189;SDS011;52992;52.084;5.412;2022-12-24T05:46:32;30.00;;;4.90;;
66189;SDS011;52992;52.084;5.412;2022-12-24T05:48:59;46.97;;;5.80;;
66189;SDS011;52992;52.084;5.412;2022-12-24T05:51:26;33.50;;;5.50;;
66189;SDS011;52992;52.084;5.412;2022-12-24T05:53:52;34.43;;;5.47;;
66189;SDS011;52992;52.084;5.412;2022-12-24T05:56:20;41.37;;;6.03;;
66189;SDS011;52992;52.084;5.412;2022-12-24T05:58:48;26.30;;;4.93;;
66189;SDS011;52992;52.084;5.412;2022-12-24T06:01:16;29.93;;;6.47;;
66189;SDS011;52992;52.084;5.412;2022-12-24T06:03:44;29.77;;;4.57;;
66189;SDS011;52992;52.084;5.412;2022-12-24T06:06:12;37.20;;;5.80;;
66189;SDS011;52992;52.084;5.412;2022-12-24T06:08:41;35.40;;;5.40;;
66189;SDS011;52992;52.084;5.412;2022-12-24T06:11:09;40.97;;;6.53;;
66189;SDS011;52992;52.084;5.412;2022-12-24T06:13:39;42.93;;;6.40;;
66189;SDS011;52992;52.084;5.412;2022-12-24T06:16:07;26.70;;;5.73;;
66189;SDS011;52992;52.084;5.412;2022-12-24T06:18:36;40.70;;;6.03;;
66189;SDS011;52992;52.084;5.412;2022-12-24T06:21:03;40.37;;;6.53;;
66189;SDS011;52992;52.084;5.412;2022-12-24T06:23:32;33.30;;;6.63;;
66189;SDS011;52992;52.084;5.412;2022-12-24T06:26:01;38.30;;;7.13;;
66189;SDS011;52992;52.084;5.412;2022-12-24T06:28:29;60.40;;;6.87;;
66189;SDS011;52992;52.084;5.412;2022-12-24T06:30:57;40.27;;;6.00;;
66189;SDS011;52992;52.084;5.412;2022-12-24T06:33:29;36.50;;;6.20;;
66189;SDS011;52992;52.084;5.412;2022-12-24T06:35:57;38.87;;;5.87;;
66189;SDS011;52992;52.084;5.412;2022-12-24T06:38:24;39.60;;;7.93;;
66189;SDS011;52992;52.084;5.412;2022-12-24T06:40:51;34.83;;;6.10;;
66189;SDS011;52992;52.084;5.412;2022-12-24T06:43:18;38.17;;;6.17;;
66189;SDS011;52992;52.084;5.412;2022-12-24T06:45:46;44.17;;;6.60;;
66189;SDS011;52992;52.084;5.412;2022-12-24T06:48:13;32.57;;;6.67;;
66189;SDS011;52992;52.084;5.412;2022-12-24T06:50:41;43.70;;;6.27;;
66189;SDS011;52992;52.084;5.412;2022-12-24T06:53:09;46.40;;;6.07;;
66189;SDS011;52992;52.084;5.412;2022-12-24T06:55:36;40.63;;;6.87;;
66189;SDS011;52992;52.084;5.412;2022-12-24T06:58:03;34.80;;;6.07;;
66189;SDS011;52992;52.084;5.412;2022-12-24T07:00:30;33.00;;;6.30;;
66189;SDS011;52992;52.084;5.412;2022-12-24T07:02:57;31.83;;;6.33;;
66189;SDS011;52992;52.084;5.412;2022-12-24T07:05:24;48.73;;;5.87;;
66189;SDS011;52992;52.084;5.412;2022-12-24T07:07:51;37.60;;;6.40;;
66189;SDS011;52992;52.084;5.412;2022-12-24T07:10:19;49.40;;;7.20;;
66189;SDS011;52992;52.084;5.412;2022-12-24T07:12:46;44.03;;;6.50;;
66189;SDS011;52992;52.084;5.412;2022-12-24T07:15:14;32.77;;;5.67;;
66189;SDS011;52992;52.084;5.412;2022-12-24T07:17:41;34.97;;;7.13;;
66189;SDS011;52992;52.084;5.412;2022-12-24T07:20:09;37.63;;;6.97;;
66189;SDS011;52992;52.084;5.412;2022-12-24T07:22:39;44.23;;;6.20;;
66189;SDS011;52992;52.084;5.412;2022-12-24T07:25:07;40.37;;;5.60;;
66189;SDS011;52992;52.084;5.412;2022-12-24T07:27:35;53.03;;;6.07;;
66189;SDS011;52992;52.084;5.412;2022-12-24T07:30:03;26.93;;;5.80;;
66189;SDS011;52992;52.084;5.412;2022-12-24T07:32:30;38.63;;;5.90;;
66189;SDS011;52992;52.084;5.412;2022-12-24T07:34:57;36.87;;;5.90;;
66189;SDS011;52992;52.084;5.412;2022-12-24T07:37:24;38.43;;;6.77;;
66189;SDS011;52992;52.084;5.412;2022-12-24T07:39:51;43.87;;;6.60;;
66189;SDS011;52992;52.084;5.412;2022-12-24T07:42:17;36.20;;;6.20;;
66189;SDS011;52992;52.084;5.412;2022-12-24T07:44:45;38.90;;;7.10;;
66189;SDS011;52992;52.084;5.412;2022-12-24T07:47:11;33.37;;;5.87;;
66189;SDS011;52992;52.084;5.412;2022-12-24T07:49:38;33.93;;;5.87;;
66189;SDS011;52992;52.084;5.412;2022-12-24T07:52:05;38.20;;;5.73;;
66189;SDS011;52992;52.084;5.412;2022-12-24T07:54:32;37.83;;;5.67;;
66189;SDS011;52992;52.084;5.412;2022-12-24T07:56:59;35.77;;;5.93;;
66189;SDS011;52992;52.084;5.412;2022-12-24T07:59:26;39.90;;;6.63;;
66189;SDS011;52992;52.084;5.412;2022-12-24T08:01:52;39.03;;;5.27;;
66189;SDS011;52992;52.084;5.412;2022-12-24T08:04:19;30.63;;;5.40;;
66189;SDS011;52992;52.084;5.412;2022-12-24T08:06:46;39.70;;;6.10;;
66189;SDS011;52992;52.084;5.412;2022-12-24T08:09:13;40.33;;;5.87;;
66189;SDS011;52992;52.084;5.412;2022-12-24T08:11:40;31.03;;;5.57;;
66189;SDS011;52992;52.084;5.412;2022-12-24T08:14:16;40.73;;;5.97;;
66189;SDS011;52992;52.084;5.412;2022-12-24T08:16:43;27.33;;;4.70;;
66189;SDS011;52992;52.084;5.412;2022-12-24T08:19:10;33.03;;;5.47;;
66189;SDS011;52992;52.084;5.412;2022-12-24T08:21:37;37.53;;;6.10;;
66189;SDS011;52992;52.084;5.412;2022-12-24T08:24:04;34.73;;;6.07;;
66189;SDS011;52992;52.084;5.412;2022-12-24T08:26:31;29.17;;;5.60;;
66189;SDS011;52992;52.084;5.412;2022-12-24T08:28:58;33.60;;;5.60;;
66189;SDS011;52992;52.084;5.412;2022-12-24T08:31:25;39.67;;;6.40;;
66189;SDS011;52992;52.084;5.412;2022-12-24T08:33:52;36.00;;;5.63;;
66189;SDS011;52992;52.084;5.412;2022-12-24T08:36:19;28.80;;;6.23;;
66189;SDS011;52992;52.084;5.412;2022-12-24T08:38:45;40.13;;;7.13;;
66189;SDS011;52992;52.084;5.412;2022-12-24T08:41:12;44.43;;;6.63;;
66189;SDS011;52992;52.084;5.412;2022-12-24T08:43:39;37.53;;;6.03;;
66189;SDS011;52992;52.084;5.412;2022-12-24T08:46:06;42.90;;;7.07;;
66189;SDS011;52992;52.084;5.412;2022-12-24T08:48:33;41.03;;;6.67;;
66189;SDS011;52992;52.084;5.412;2022-12-24T08:51:05;42.67;;;6.53;;
66189;SDS011;52992;52.084;5.412;2022-12-24T08:53:36;37.07;;;6.27;;
66189;SDS011;52992;52.084;5.412;2022-12-24T08:56:04;28.93;;;6.73;;
66189;SDS011;52992;52.084;5.412;2022-12-24T08:58:32;34.77;;;5.93;;
66189;SDS011;52992;52.084;5.412;2022-12-24T09:00:59;32.90;;;5.83;;
66189;SDS011;52992;52.084;5.412;2022-12-24T09:03:26;33.67;;;6.47;;
66189;SDS011;52992;52.084;5.412;2022-12-24T09:05:53;27.17;;;6.20;;
66189;SDS011;52992;52.084;5.412;2022-12-24T09:08:20;38.47;;;6.33;;
66189;SDS011;52992;52.084;5.412;2022-12-24T09:10:47;52.00;;;7.43;;
66189;SDS011;52992;52.084;5.412;2022-12-24T09:13:14;44.67;;;7.23;;
66189;SDS011;52992;52.084;5.412;2022-12-24T09:15:41;29.53;;;6.27;;
66189;SDS011;52992;52.084;5.412;2022-12-24T09:18:07;27.13;;;6.13;;
66189;SDS011;52992;52.084;5.412;2022-12-24T09:20:35;45.33;;;6.83;;
66189;SDS011;52992;52.084;5.412;2022-12-24T09:23:04;36.50;;;7.87;;
66189;SDS011;52992;52.084;5.412;2022-12-24T09:25:31;36.70;;;6.40;;
66189;SDS011;52992;52.084;5.412;2022-12-24T09:27:58;30.60;;;6.90;;
66189;SDS011;52992;52.084;5.412;2022-12-24T09:30:25;30.50;;;6.33;;
66189;SDS011;52992;52.084;5.412;2022-12-24T09:32:51;32.97;;;6.23;;
66189;SDS011;52992;52.084;5.412;2022-12-24T09:35:18;28.43;;;6.87;;
66189;SDS011;52992;52.084;5.412;2022-12-24T09:37:45;27.87;;;6.77;;
66189;SDS011;52992;52.084;5.412;2022-12-24T09:40:19;42.33;;;6.77;;
66189;SDS011;52992;52.084;5.412;2022-12-24T09:42:50;32.87;;;6.67;;
66189;SDS011;52992;52.084;5.412;2022-12-24T09:45:32;28.77;;;5.17;;
66189;SDS011;52992;52.084;5.412;2022-12-24T09:48:13;31.20;;;6.23;;
66189;SDS011;52992;52.084;5.412;2022-12-24T09:55:55;24.67;;;5.53;;
66189;SDS011;52992;52.084;5.412;2022-12-24T09:58:28;32.93;;;5.73;;
66189;SDS011;52992;52.084;5.412;2022-12-24T10:01:00;26.33;;;5.53;;
66189;SDS011;52992;52.084;5.412;2022-12-24T10:03:27;25.70;;;6.03;;
66189;SDS011;52992;52.084;5.412;2022-12-24T10:06:05;26.80;;;6.07;;
66189;SDS011;52992;52.084;5.412;2022-12-24T10:08:45;38.73;;;6.20;;
66189;SDS011;52992;52.084;5.412;2022-12-24T10:11:41;33.50;;;7.00;;
66189;SDS011;52992;52.084;5.412;2022-12-24T10:27:51;32.43;;;5.83;;
66189;SDS011;52992;52.084;5.412;2022-12-24T10:30:20;35.73;;;6.13;;
66189;SDS011;52992;52.084;5.412;2022-12-24T10:32:49;26.77;;;6.43;;
66189;SDS011;52992;52.084;5.412;2022-12-24T10:35:28;28.27;;;6.17;;
66189;SDS011;52992;52.084;5.412;2022-12-24T10:38:01;25.10;;;5.77;;
66189;SDS011;52992;52.084;5.412;2022-12-24T10:40:31;25.33;;;4.83;;
66189;SDS011;52992;52.084;5.412;2022-12-24T10:45:44;33.93;;;6.37;;
66189;SDS011;52992;52.084;5.412;2022-12-24T10:48:15;27.47;;;5.13;;
66189;SDS011;52992;52.084;5.412;2022-12-24T10:53:46;27.37;;;6.93;;
66189;SDS011;52992;52.084;5.412;2022-12-24T10:56:17;30.63;;;6.23;;
66189;SDS011;52992;52.084;5.412;2022-12-24T10:58:49;19.53;;;6.07;;
66189;SDS011;52992;52.084;5.412;2022-12-24T11:01:20;30.07;;;6.07;;
66189;SDS011;52992;52.084;5.412;2022-12-24T11:04:18;27.00;;;6.07;;
66189;SDS011;52992;52.084;5.412;2022-12-24T11:07:06;28.53;;;6.93;;
66189;SDS011;52992;52.084;5.412;2022-12-24T11:09:56;29.17;;;7.53;;
66189;SDS011;52992;52.084;5.412;2022-12-24T11:12:32;24.40;;;6.50;;
66189;SDS011;52992;52.084;5.412;2022-12-24T11:15:03;26.93;;;6.67;;
66189;SDS011;52992;52.084;5.412;2022-12-24T11:17:32;27.63;;;6.13;;
66189;SDS011;52992;52.084;5.412;2022-12-24T11:19:59;35.30;;;6.77;;
66189;SDS011;52992;52.084;5.412;2022-12-24T11:22:30;27.43;;;6.80;;
66189;SDS011;52992;52.084;5.412;2022-12-24T11:25:00;21.20;;;5.03;;
66189;SDS011;52992;52.084;5.412;2022-12-24T11:32:46;24.67;;;4.90;;
66189;SDS011;52992;52.084;5.412;2022-12-24T11:35:25;16.93;;;5.93;;
66189;SDS011;52992;52.084;5.412;2022-12-24T11:40:22;33.67;;;5.47;;
66189;SDS011;52992;52.084;5.412;2022-12-24T11:42:51;17.60;;;5.07;;
66189;SDS011;52992;52.084;5.412;2022-12-24T11:45:28;21.40;;;4.70;;
66189;SDS011;52992;52.084;5.412;2022-12-24T11:47:56;28.70;;;6.20;;
66189;SDS011;52992;52.084;5.412;2022-12-24T11:50:28;24.57;;;6.73;;
66189;SDS011;52992;52.084;5.412;2022-12-24T11:53:10;21.97;;;5.00;;
66189;SDS011;52992;52.084;5.412;2022-12-24T11:55:55;22.73;;;5.23;;
66189;SDS011;52992;52.084;5.412;2022-12-24T11:58:40;27.70;;;5.53;;
66189;SDS011;52992;52.084;5.412;2022-12-24T12:01:20;24.90;;;5.87;;
66189;SDS011;52992;52.084;5.412;2022-12-24T12:04:04;24.13;;;6.43;;
66189;SDS011;52992;52.084;5.412;2022-12-24T12:06:51;21.73;;;7.83;;
66189;SDS011;52992;52.084;5.412;2022-12-24T12:09:30;30.43;;;6.50;;
66189;SDS011;52992;52.084;5.412;2022-12-24T12:12:11;23.40;;;5.70;;
66189;SDS011;52992;52.084;5.412;2022-12-24T12:15:04;25.83;;;5.80;;
66189;SDS011;52992;52.084;5.412;2022-12-24T12:17:48;24.60;;;5.13;;
66189;SDS011;52992;52.084;5.412;2022-12-24T12:20:27;31.90;;;6.23;;
66189;SDS011;52992;52.084;5.412;2022-12-24T12:25:37;26.10;;;6.43;;
66189;SDS011;52992;52.084;5.412;2022-12-24T12:28:16;25.13;;;6.17;;
66189;SDS011;52992;52.084;5.412;2022-12-24T12:30:53;19.93;;;4.93;;
66189;SDS011;52992;52.084;5.412;2022-12-24T12:33:45;17.23;;;4.93;;
66189;SDS011;52992;52.084;5.412;2022-12-24T12:36:29;22.93;;;4.27;;
66189;SDS011;52992;52.084;5.412;2022-12-24T12:39:01;23.97;;;4.20;;
66189;SDS011;52992;52.084;5.412;2022-12-24T12:50:15;14.50;;;4.80;;
66189;SDS011;52992;52.084;5.412;2022-12-24T12:58:22;17.90;;;5.10;;
66189;SDS011;52992;52.084;5.412;2022-12-24T13:00:58;22.43;;;7.10;;
66189;SDS011;52992;52.084;5.412;2022-12-24T13:06:25;24.17;;;4.90;;
66189;SDS011;52992;52.084;5.412;2022-12-24T13:09:33;22.20;;;5.60;;
66189;SDS011;52992;52.084;5.412;2022-12-24T13:22:46;16.77;;;3.97;;
66189;SDS011;52992;52.084;5.412;2022-12-24T13:25:19;21.13;;;4.70;;
66189;SDS011;52992;52.084;5.412;2022-12-24T13:27:48;19.73;;;4.37;;
66189;SDS011;52992;52.084;5.412;2022-12-24T13:30:32;25.47;;;4.40;;
66189;SDS011;52992;52.084;5.412;2022-12-24T13:33:04;25.97;;;4.67;;
66189;SDS011;52992;52.084;5.412;2022-12-24T13:35:37;19.93;;;4.13;;
66189;SDS011;52992;52.084;5.412;2022-12-24T13:38:28;18.93;;;4.40;;
66189;SDS011;52992;52.084;5.412;2022-12-24T13:49:21;19.30;;;4.73;;
66189;SDS011;52992;52.084;5.412;2022-12-24T13:54:41;21.23;;;5.93;;
66189;SDS011;52992;52.084;5.412;2022-12-24T13:57:38;22.07;;;5.37;;
66189;SDS011;52992;52.084;5.412;2022-12-24T14:03:06;26.53;;;5.83;;
66189;SDS011;52992;52.084;5.412;2022-12-24T14:06:01;18.27;;;5.80;;
66189;SDS011;52992;52.084;5.412;2022-12-24T14:08:35;24.53;;;5.10;;
66189;SDS011;52992;52.084;5.412;2022-12-24T14:11:18;26.30;;;6.93;;
66189;SDS011;52992;52.084;5.412;2022-12-24T14:16:13;16.90;;;4.73;;
66189;SDS011;52992;52.084;5.412;2022-12-24T14:18:45;12.13;;;4.37;;
66189;SDS011;52992;52.084;5.412;2022-12-24T14:21:16;18.83;;;4.73;;
66189;SDS011;52992;52.084;5.412;2022-12-24T14:23:53;21.73;;;4.80;;
66189;SDS011;52992;52.084;5.412;2022-12-24T14:26:27;23.93;;;4.77;;
66189;SDS011;52992;52.084;5.412;2022-12-24T14:28:58;24.17;;;5.10;;
66189;SDS011;52992;52.084;5.412;2022-12-24T14:31:30;27.27;;;4.63;;
66189;SDS011;52992;52.084;5.412;2022-12-24T14:34:04;16.87;;;3.80;;
66189;SDS011;52992;52.084;5.412;2022-12-24T14:36:33;26.30;;;4.43;;
66189;SDS011;52992;52.084;5.412;2022-12-24T14:39:02;21.50;;;4.60;;
66189;SDS011;52992;52.084;5.412;2022-12-24T14:47:44;21.67;;;5.07;;
66189;SDS011;52992;52.084;5.412;2022-12-24T14:52:58;25.93;;;5.30;;
66189;SDS011;52992;52.084;5.412;2022-12-24T14:55:43;23.67;;;4.73;;
66189;SDS011;52992;52.084;5.412;2022-12-24T14:58:19;29.50;;;6.37;;
66189;SDS011;52992;52.084;5.412;2022-12-24T15:01:02;15.10;;;4.60;;
66189;SDS011;52992;52.084;5.412;2022-12-24T15:03:44;19.87;;;4.70;;
66189;SDS011;52992;52.084;5.412;2022-12-24T15:06:11;27.93;;;5.23;;
66189;SDS011;52992;52.084;5.412;2022-12-24T15:08:43;17.17;;;4.30;;
66189;SDS011;52992;52.084;5.412;2022-12-24T15:11:15;23.47;;;4.10;;
66189;SDS011;52992;52.084;5.412;2022-12-24T15:13:45;23.63;;;4.93;;
66189;SDS011;52992;52.084;5.412;2022-12-24T15:16:49;23.73;;;4.60;;
66189;SDS011;52992;52.084;5.412;2022-12-24T15:19:31;18.00;;;4.80;;
66189;SDS011;52992;52.084;5.412;2022-12-24T15:22:01;17.50;;;4.67;;
66189;SDS011;52992;52.084;5.412;2022-12-24T15:24:30;14.43;;;4.50;;
66189;SDS011;52992;52.084;5.412;2022-12-24T15:27:00;29.63;;;4.83;;
66189;SDS011;52992;52.084;5.412;2022-12-24T15:29:31;23.33;;;6.10;;
66189;SDS011;52992;52.084;5.412;2022-12-24T15:32:04;23.57;;;4.73;;
66189;SDS011;52992;52.084;5.412;2022-12-24T15:34:38;19.43;;;4.30;;
66189;SDS011;52992;52.084;5.412;2022-12-24T15:37:26;29.57;;;5.63;;
66189;SDS011;52992;52.084;5.412;2022-12-24T15:42:26;18.47;;;4.40;;
66189;SDS011;52992;52.084;5.412;2022-12-24T15:44:58;21.73;;;4.17;;
66189;SDS011;52992;52.084;5.412;2022-12-24T15:47:29;22.27;;;4.67;;
66189;SDS011;52992;52.084;5.412;2022-12-24T15:50:27;34.70;;;5.67;;
66189;SDS011;52992;52.084;5.412;2022-12-24T15:53:01;22.20;;;5.27;;
66189;SDS011;52992;52.084;5.412;2022-12-24T15:55:58;25.30;;;5.13;;
66189;SDS011;52992;52.084;5.412;2022-12-24T15:58:45;28.17;;;6.30;;
66189;SDS011;52992;52.084;5.412;2022-12-24T16:03:40;24.23;;;8.07;;
66189;SDS011;52992;52.084;5.412;2022-12-24T16:06:22;28.07;;;8.43;;
66189;SDS011;52992;52.084;5.412;2022-12-24T16:08:49;22.67;;;7.97;;
66189;SDS011;52992;52.084;5.412;2022-12-24T16:11:21;15.30;;;7.27;;
66189;SDS011;52992;52.084;5.412;2022-12-24T16:16:17;23.20;;;6.37;;
66189;SDS011;52992;52.084;5.412;2022-12-24T16:18:51;33.23;;;6.13;;
66189;SDS011;52992;52.084;5.412;2022-12-24T16:21:23;25.00;;;6.17;;
66189;SDS011;52992;52.084;5.412;2022-12-24T16:23:54;26.43;;;5.37;;
66189;SDS011;52992;52.084;5.412;2022-12-24T16:26:23;24.53;;;5.63;;
66189;SDS011;52992;52.084;5.412;2022-12-24T16:28:50;25.20;;;5.33;;
66189;SDS011;52992;52.084;5.412;2022-12-24T16:31:17;32.93;;;6.20;;
66189;SDS011;52992;52.084;5.412;2022-12-24T16:33:53;23.83;;;6.03;;
66189;SDS011;52992;52.084;5.412;2022-12-24T16:36:22;28.53;;;9.37;;
66189;SDS011;52992;52.084;5.412;2022-12-24T16:38:49;31.00;;;9.83;;
66189;SDS011;52992;52.084;5.412;2022-12-24T16:41:34;19.67;;;8.47;;
66189;SDS011;52992;52.084;5.412;2022-12-24T16:44:21;31.97;;;11.53;;
66189;SDS011;52992;52.084;5.412;2022-12-24T16:46:48;29.97;;;12.13;;
66189;SDS011;52992;52.084;5.412;2022-12-24T16:49:18;36.33;;;12.53;;
66189;SDS011;52992;52.084;5.412;2022-12-24T16:51:47;36.37;;;12.50;;
66189;SDS011;52992;52.084;5.412;2022-12-24T16:54:14;32.90;;;12.00;;
66189;SDS011;52992;52.084;5.412;2022-12-24T16:56:42;32.77;;;12.00;;
66189;SDS011;52992;52.084;5.412;2022-12-24T16:59:16;28.67;;;11.20;;